»·PEaware :: DAL1867 KSNA-KLAS

DAL1867 :: KSNA-KLAS

FLIGHT INFORMATION

Flight Status: Arrived
Operator:
Delta Air Lines
More flights by this operator :: More flights under this callsign
Pilot: William B. (10095)
Aircraft: BOEING 717-200
(B712)
More flights by this aircraft type
Origin: KSNA John Wayne-Orange Co
United States
Destination: KLAS McCarran Intl
United States
More flights between these airports :: More routes between these airports
Route: +MUSEL8 DAG KEPEC3
File this flight plan on PilotEdge
Remarks: P3d V3.4 Tfdi Design 717
Altitude:
(Current/Filed)
250ft
Speed:
(Current/Filed)
320kts
Departed: 13-Feb-17 06:17 PM
Arrived: 13-Feb-17 07:09 PM
Distance/Time
Traveled:
197nm/0:52
Distance/Time
To Go:
Arrived

Flight Plot

Page will automatically refresh every two minutes.


Map Options




Map Legend


Flown Route
Filed Route
Departure Airport
Arrival Airport
Navaid (VOR, NDB)
Fix

Horizontal Profiles

Position Reports

Time Latitude Longitude Heading Altitude Ground
Speed
13-Feb-17 18:05 33.677191 -117.863743 118 64ft 0kts
13-Feb-17 18:06 33.677191 -117.863743 118 64ft 0kts
13-Feb-17 18:07 33.677191 -117.863743 118 64ft 0kts
13-Feb-17 18:08 33.677170 -117.863503 116 64ft 0kts
13-Feb-17 18:09 33.677282 -117.863807 108 64ft 2kts
13-Feb-17 18:10 33.677221 -117.864399 27 64ft 0kts
13-Feb-17 18:11 33.677219 -117.864400 27 64ft 0kts
13-Feb-17 18:12 33.677220 -117.864400 27 64ft 0kts
13-Feb-17 18:13 33.677221 -117.864399 27 64ft 0kts
13-Feb-17 18:14 33.679496 -117.863075 27 64ft 14kts
13-Feb-17 18:15 33.680656 -117.863163 297 64ft 0kts
13-Feb-17 18:16 33.681219 -117.865395 203 64ft 3kts
13-Feb-17 18:17 33.664938 -117.875756 207 342ft 161kts
13-Feb-17 18:18 33.629235 -117.897354 210 2784ft 192kts
13-Feb-17 18:19 33.576214 -117.934086 214 4892ft 256kts
13-Feb-17 18:20 33.543050 -118.010881 254 7432ft 284kts
13-Feb-17 18:21 33.519503 -118.102938 254 8069ft 289kts
13-Feb-17 18:22 33.547228 -118.181125 339 10672ft 289kts
13-Feb-17 18:23 33.627322 -118.148272 34 12740ft 352kts
13-Feb-17 18:24 33.712422 -118.083613 23 15562ft 368kts
13-Feb-17 18:25 33.809594 -118.036070 26 17088ft 382kts
13-Feb-17 18:26 33.894934 -117.960422 34 18028ft 385kts
13-Feb-17 18:27 33.980267 -117.878535 34 20407ft 400kts
13-Feb-17 18:28 34.068827 -117.795652 33 22927ft 403kts
13-Feb-17 18:29 34.148522 -117.698949 43 25112ft 413kts
13-Feb-17 18:30 34.222466 -117.594165 43 25105ft 406kts
13-Feb-17 18:31 34.296522 -117.491706 42 25094ft 404kts
13-Feb-17 18:32 34.371308 -117.390283 42 25153ft 404kts
13-Feb-17 18:33 34.445914 -117.288533 43 25138ft 404kts
13-Feb-17 18:34 34.520425 -117.186250 43 25158ft 403kts
13-Feb-17 18:35 34.594577 -117.084204 43 25158ft 404kts
13-Feb-17 18:36 34.668675 -116.982183 42 25233ft 402kts
13-Feb-17 18:37 34.743138 -116.879652 42 25137ft 403kts
13-Feb-17 18:38 34.815274 -116.779950 42 25122ft 403kts
13-Feb-17 18:39 34.889681 -116.677854 42 25135ft 403kts
13-Feb-17 18:40 34.964093 -116.576197 42 24574ft 398kts
13-Feb-17 18:41 35.041240 -116.479068 40 24143ft 401kts
13-Feb-17 18:42 35.119397 -116.382659 40 23440ft 386kts
13-Feb-17 18:43 35.188980 -116.294760 40 22734ft 348kts
13-Feb-17 18:44 35.255301 -116.210986 41 21229ft 338kts
13-Feb-17 18:45 35.319966 -116.129236 41 19698ft 331kts
13-Feb-17 18:46 35.383420 -116.049184 42 18167ft 323kts
13-Feb-17 18:47 35.445219 -115.970632 43 16728ft 315kts
13-Feb-17 18:48 35.505493 -115.894284 43 15301ft 308kts
13-Feb-17 18:49 35.564745 -115.819305 43 13897ft 301kts
13-Feb-17 18:50 35.622466 -115.746587 43 13011ft 296kts
13-Feb-17 18:51 35.680305 -115.673834 43 13086ft 316kts
13-Feb-17 18:52 35.751668 -115.583509 39 13008ft 394kts
13-Feb-17 18:53 35.852129 -115.553763 357 13047ft 393kts
13-Feb-17 18:54 35.954296 -115.560898 8 12757ft 322kts
13-Feb-17 18:55 36.005468 -115.488250 71 11243ft 288kts
13-Feb-17 18:56 36.026280 -115.392933 71 9306ft 281kts
13-Feb-17 18:57 36.027679 -115.297460 94 9022ft 284kts
13-Feb-17 18:58 36.018165 -115.200604 93 8636ft 282kts
13-Feb-17 18:59 36.012677 -115.121018 92 7392ft 280kts
13-Feb-17 19:00 36.007328 -115.026143 92 5367ft 274kts
13-Feb-17 19:01 36.001634 -114.921374 91 5022ft 234kts
13-Feb-17 19:02 35.996641 -114.839744 92 5024ft 241kts
13-Feb-17 19:03 36.012435 -114.765846 28 5012ft 237kts
13-Feb-17 19:04 36.064275 -114.789181 303 5062ft 307kts
13-Feb-17 19:05 36.067384 -114.897133 262 5022ft 327kts
13-Feb-17 19:06 36.071263 -115.010723 291 4314ft 267kts
13-Feb-17 19:07 36.075849 -115.067567 269 2982ft 166kts
13-Feb-17 19:08 36.076237 -115.121853 272 2229ft 144kts
13-Feb-17 19:09 36.076373 -115.156182 274 2123ft 26kts
13-Feb-17 19:10 36.078049 -115.156383 89 2123ft 14kts
13-Feb-17 19:11 36.078821 -115.149661 37 2123ft 22kts
13-Feb-17 19:12 36.080228 -115.147354 54 2123ft 0kts
13-Feb-17 19:13 36.080228 -115.147354 54 2123ft 0kts

Navigation Log

Ident Type
Flight plan parsing failed, navigation log unavailable